Time;durP1;ratioP1;P1;durP2;ratioP2;P2;SDS_P1;SDS_P2;PMS_P1;PMS_P2;Temp;Humidity;BMP_temperature;BMP_pressure;BME280_temperature;BME280_humidity;BME280_pressure;Samples;Min_cycle;Max_cycle;Signal;HPM_P1;HPM_P2
2021/05/17 00:00:51;;;;;;;2.45;1.25;;;;;;;22.10;31.60;100094.72;5074513;28;20035;-87
2021/05/17 00:03:18;;;;;;;3.55;1.50;;;;;;;22.11;31.60;100102.66;5073183;28;20036;-88
2021/05/17 00:05:44;;;;;;;5.53;1.92;;;;;;;21.97;31.65;100099.91;5074824;28;20037;-87
2021/05/17 00:08:10;;;;;;;3.00;1.40;;;;;;;21.73;32.25;100100.84;5073509;28;20115;-87
2021/05/17 00:10:36;;;;;;;4.60;1.92;;;;;;;21.82;32.04;100103.97;5074543;28;20104;-88
2021/05/17 00:13:03;;;;;;;2.95;1.55;;;;;;;21.86;32.00;100105.56;5073560;28;20024;-86
2021/05/17 00:15:29;;;;;;;5.18;2.40;;;;;;;21.83;32.21;100111.13;5073310;28;20032;-87
2021/05/17 00:17:55;;;;;;;4.97;2.92;;;;;;;21.78;32.10;100115.13;5073171;28;20070;-87
2021/05/17 00:20:23;;;;;;;6.78;3.35;;;;;;;21.81;32.34;100105.97;5072434;28;20065;-87
2021/05/17 00:22:49;;;;;;;9.43;4.72;;;;;;;21.84;32.09;100110.72;5073189;28;20048;-87
2021/05/17 00:25:15;;;;;;;11.75;5.90;;;;;;;21.88;31.82;100107.91;5073033;28;20116;-87
2021/05/17 00:27:42;;;;;;;14.55;7.95;;;;;;;21.86;31.87;100107.53;5073181;28;20386;-87
2021/05/17 00:30:09;;;;;;;12.80;7.68;;;;;;;21.81;32.01;100114.31;5073241;28;20035;-88
2021/05/17 00:32:36;;;;;;;13.48;7.07;;;;;;;21.84;31.76;100107.94;5073158;28;20024;-87
2021/05/17 00:35:03;;;;;;;12.48;7.30;;;;;;;21.71;31.99;100117.16;5072978;28;20409;-88
2021/05/17 00:37:29;;;;;;;13.23;7.28;;;;;;;21.67;32.07;100119.13;5072853;28;20039;-88
2021/05/17 00:39:55;;;;;;;8.13;4.63;;;;;;;21.64;31.97;100117.16;5072930;28;20123;-87
2021/05/17 00:42:21;;;;;;;5.43;3.28;;;;;;;21.70;32.04;100118.34;5074082;28;20510;-88
2021/05/17 00:44:47;;;;;;;7.13;3.40;;;;;;;21.62;32.22;100120.38;5072876;28;20081;-87
2021/05/17 00:47:15;;;;;;;5.40;2.55;;;;;;;21.50;32.28;100124.34;5073049;28;20103;-87
2021/05/17 00:49:42;;;;;;;6.72;2.13;;;;;;;21.46;32.43;100122.78;5072833;28;20043;-88
2021/05/17 00:52:10;;;;;;;2.38;1.65;;;;;;;21.40;32.38;100130.75;5073020;28;20538;-87
2021/05/17 00:54:37;;;;;;;3.53;1.95;;;;;;;21.39;32.18;100129.16;5072522;28;20032;-87
2021/05/17 00:57:04;;;;;;;9.25;2.63;;;;;;;21.33;32.55;100130.75;5072650;28;20601;-87
2021/05/17 00:59:32;;;;;;;4.57;2.38;;;;;;;21.29;32.28;100132.75;5072714;28;20067;-88
2021/05/17 01:01:57;;;;;;;5.32;2.25;;;;;;;21.30;32.59;100139.88;5072669;28;20093;-87
2021/05/17 01:04:23;;;;;;;7.03;2.40;;;;;;;21.30;32.50;100143.44;5071390;28;20024;-88
2021/05/17 01:06:51;;;;;;;4.97;2.20;;;;;;;21.22;32.52;100138.28;5071899;28;20032;-88
2021/05/17 01:09:17;;;;;;;5.68;2.40;;;;;;;;;;5072572;28;20028;-88
2021/05/17 01:11:43;;;;;;;3.75;2.10;;;;;;;21.13;32.52;100151.81;5072675;28;20024;-86
2021/05/17 01:14:10;;;;;;;7.82;2.30;;;;;;;21.15;32.53;100150.19;5072671;28;20106;-88
2021/05/17 01:16:36;;;;;;;3.83;1.98;;;;;;;21.09;32.30;100156.59;5072517;28;20028;-87
2021/05/17 01:19:05;;;;;;;5.57;2.30;;;;;;;20.99;32.53;100160.94;5072481;28;20497;-87
2021/05/17 01:21:36;;;;;;;7.07;3.05;;;;;;;20.97;32.76;100155.78;5072631;28;20032;-88
2021/05/17 01:24:02;;;;;;;6.93;3.30;;;;;;;20.97;32.56;100157.75;5072434;28;20028;-87
2021/05/17 01:26:31;;;;;;;6.65;3.55;;;;;;;21.21;32.12;100156.94;5072495;28;20033;-88
2021/05/17 01:28:59;;;;;;;7.63;5.20;;;;;;;21.16;32.08;100157.38;5072447;28;20122;-87
2021/05/17 01:31:25;;;;;;;9.55;4.25;;;;;;;21.09;32.13;100157.38;5075403;28;20033;-88
2021/05/17 01:33:51;;;;;;;7.40;3.63;;;;;;;21.08;32.08;100158.53;5076352;28;20524;-87
2021/05/17 01:36:18;;;;;;;3.40;2.50;;;;;;;21.16;31.84;100160.16;5076466;28;20493;-86
2021/05/17 01:38:47;;;;;;;4.65;2.22;;;;;;;21.17;31.89;100169.28;5076439;28;20074;-87
2021/05/17 01:41:15;;;;;;;3.78;1.90;;;;;;;21.17;31.80;100170.06;5076320;28;20024;-88
2021/05/17 01:43:44;;;;;;;4.55;1.85;;;;;;;21.09;32.03;100176.03;5076230;28;20025;-87
2021/05/17 01:46:14;;;;;;;3.22;1.65;;;;;;;21.10;32.04;100181.19;5076179;28;20367;-86
2021/05/17 01:48:41;;;;;;;2.80;1.60;;;;;;;21.17;31.66;100181.16;5076307;28;20028;-87
2021/05/17 01:51:14;;;;;;;2.50;1.70;;;;;;;21.14;32.04;100187.50;5076077;28;20017;-87
2021/05/17 01:53:41;;;;;;;2.90;2.22;;;;;;;21.10;32.01;100192.28;5075956;28;20029;-86
2021/05/17 01:56:08;;;;;;;4.75;2.35;;;;;;;21.10;31.72;100180.38;5075853;28;20017;-87
2021/05/17 01:58:36;;;;;;;4.45;2.67;;;;;;;21.09;31.99;100189.91;5075552;28;20051;-87
2021/05/17 02:01:04;;;;;;;4.85;1.90;;;;;;;21.13;31.91;100190.69;5076216;28;20040;-87
2021/05/17 02:03:38;;;;;;;2.80;1.85;;;;;;;21.03;32.23;100193.06;5075915;28;20025;-87
2021/05/17 02:06:06;;;;;;;3.88;1.90;;;;;;;21.09;31.89;100196.25;5075958;28;20035;-87
2021/05/17 02:08:32;;;;;;;6.95;1.85;;;;;;;21.15;32.00;100199.41;5075759;28;20056;-88
2021/05/17 02:11:00;;;;;;;4.45;2.40;;;;;;;21.18;31.79;100198.63;5075670;28;20025;-88
2021/05/17 02:13:27;;;;;;;2.95;1.60;;;;;;;21.15;31.79;100204.97;5075320;28;20025;-88
2021/05/17 02:15:53;;;;;;;3.58;1.60;;;;;;;21.10;31.93;100203.41;5075782;28;20025;-86
2021/05/17 02:18:19;;;;;;;4.03;1.88;;;;;;;21.11;31.85;100204.97;5075476;28;20047;-85
2021/05/17 02:20:46;;;;;;;3.10;2.03;;;;;;;21.07;31.74;100209.72;5075001;28;20021;-88
2021/05/17 02:23:14;;;;;;;4.32;1.98;;;;;;;20.99;31.94;100210.91;5075514;28;20028;-88
2021/05/17 02:25:48;;;;;;;2.42;1.67;;;;;;;20.97;32.10;100214.09;5075621;28;20025;-88
2021/05/17 02:28:15;;;;;;;2.60;1.80;;;;;;;20.92;32.02;100206.16;5075606;28;20391;-87
2021/05/17 02:30:41;;;;;;;5.43;2.38;;;;;;;20.87;31.99;100214.91;5075274;28;20119;-87
2021/05/17 02:33:08;;;;;;;5.22;2.05;;;;;;;20.85;32.33;100222.81;5075351;28;20067;-87
2021/05/17 02:35:34;;;;;;;5.10;2.63;;;;;;;20.86;31.71;100216.09;5075273;28;20483;-88
2021/05/17 02:38:01;;;;;;;7.28;2.65;;;;;;;20.82;32.27;100220.03;5075322;28;20032;-88
2021/05/17 02:40:27;;;;;;;4.35;2.45;;;;;;;20.67;32.35;100225.56;5075266;28;20016;-87
2021/05/17 02:42:59;;;;;;;7.45;2.95;;;;;;;20.53;32.65;100219.19;5074276;28;20062;-87
2021/05/17 02:45:25;;;;;;;5.22;2.45;;;;;;;20.57;32.29;100222.78;5075259;28;20036;-87
2021/05/17 02:47:51;;;;;;;6.20;2.53;;;;;;;20.55;32.67;100231.47;5074826;28;20028;-86
2021/05/17 02:50:17;;;;;;;4.78;2.70;;;;;;;20.42;32.74;100233.03;5074945;28;20081;-85
2021/05/17 02:52:46;;;;;;;4.38;2.00;;;;;;;20.46;32.33;100240.19;5074863;28;20475;-87
2021/05/17 02:55:14;;;;;;;5.68;2.25;;;;;;;20.30;32.75;100236.94;5074745;28;20053;-87
2021/05/17 02:57:48;;;;;;;4.90;2.28;;;;;;;20.34;32.55;100240.53;5074350;28;20056;-87
2021/05/17 03:00:22;;;;;;;5.60;2.63;;;;;;;20.39;32.45;100240.13;5074615;28;20033;-86
2021/05/17 03:03:04;;;;;;;4.68;2.45;;;;;;;20.11;32.84;100245.59;5074519;28;20022;-85
2021/05/17 03:05:33;;;;;;;3.65;2.38;;;;;;;20.07;33.11;100253.09;5074587;28;20033;-87
2021/05/17 03:08:03;;;;;;;5.93;2.37;;;;;;;20.05;33.05;100255.47;5074577;28;20111;-86
2021/05/17 03:10:31;;;;;;;3.55;2.20;;;;;;;20.03;33.11;100258.63;5074402;28;20047;-86
2021/05/17 03:13:00;;;;;;;4.13;2.65;;;;;;;20.04;33.20;100257.44;5074566;28;20020;-87
2021/05/17 03:15:27;;;;;;;5.97;2.15;;;;;;;20.02;33.25;100256.22;5074563;28;20045;-87
2021/05/17 03:17:56;;;;;;;3.55;2.20;;;;;;;19.98;33.21;100258.19;5074242;28;20082;-87
2021/05/17 03:20:23;;;;;;;9.25;3.80;;;;;;;19.77;33.32;100261.63;5074290;28;20028;-88
2021/05/17 03:22:50;;;;;;;5.75;2.92;;;;;;;19.74;33.37;100267.97;5074329;28;20056;-85
2021/05/17 03:25:20;;;;;;;4.28;2.65;;;;;;;19.74;33.15;100267.97;5075467;28;20020;-87
2021/05/17 03:27:46;;;;;;;;;;;;;;;19.70;33.23;100272.66;5074646;28;20032;-86
2021/05/17 03:30:12;;;;;;;4.40;2.22;;;;;;;19.75;33.28;100272.31;5074193;28;20332;-87
2021/05/17 03:32:38;;;;;;;3.60;2.28;;;;;;;19.72;33.47;100275.84;5073919;28;20441;-87
2021/05/17 03:35:04;;;;;;;2.92;1.95;;;;;;;19.73;33.26;100277.47;5074093;28;20055;-86
2021/05/17 03:37:30;;;;;;;3.60;2.00;;;;;;;19.68;33.37;100282.16;5074111;28;20054;-86
2021/05/17 03:39:55;;;;;;;6.22;2.60;;;;;;;19.65;33.30;100291.28;5073960;28;20494;-86
2021/05/17 03:42:21;;;;;;;5.47;2.40;;;;;;;19.59;33.43;100295.56;5073955;28;20031;-87
2021/05/17 03:44:47;;;;;;;7.55;3.30;;;;;;;19.43;33.77;100297.78;5074982;28;20482;-87
2021/05/17 03:47:13;;;;;;;6.32;2.72;;;;;;;19.53;33.63;100307.38;5073710;28;20028;-85
2021/05/17 03:49:38;;;;;;;5.45;2.30;;;;;;;19.55;33.50;100311.34;5073610;28;20033;-86
2021/05/17 03:52:04;;;;;;;5.68;2.88;;;;;;;19.52;33.61;100312.13;5073590;28;20028;-86
2021/05/17 03:54:30;;;;;;;4.20;2.25;;;;;;;19.56;33.39;100312.13;5073691;28;20029;-86
2021/05/17 03:56:56;;;;;;;3.28;2.60;;;;;;;19.48;33.76;100310.47;5073449;28;20017;-86
2021/05/17 03:59:21;;;;;;;5.32;2.42;;;;;;;19.54;33.79;100300.63;5073075;28;20387;-85
2021/05/17 04:01:47;;;;;;;6.07;2.60;;;;;;;19.50;34.06;100310.91;5073420;28;20108;-86
2021/05/17 04:04:14;;;;;;;7.15;2.60;;;;;;;19.52;34.10;100314.09;5073366;28;20107;-85
2021/05/17 04:13:17;;;;;;;6.57;2.45;;;;;;;19.49;33.88;100323.16;5074609;28;20038;-86
2021/05/17 04:15:12;;;;;;;6.63;2.40;;;;;;;19.33;34.02;100331.72;5073827;28;20020;-86
2021/05/17 04:17:38;;;;;;;4.00;2.17;;;;;;;19.34;34.02;100334.09;5073060;28;20179;-85
2021/05/17 04:20:04;;;;;;;5.00;2.92;;;;;;;19.26;34.08;100328.88;5072858;28;20505;-85
2021/05/17 04:22:30;;;;;;;4.40;2.28;;;;;;;19.25;34.03;100336.41;5073073;28;20387;-86
2021/05/17 04:24:55;;;;;;;7.55;2.88;;;;;;;19.25;34.42;100341.16;5073049;28;20036;-86
2021/05/17 04:27:21;;;;;;;8.57;2.30;;;;;;;19.15;34.44;100342.66;5072904;28;20032;-87
2021/05/17 04:29:47;;;;;;;17.60;6.20;;;;;;;19.17;34.32;100345.03;5072445;28;20051;-86
2021/05/17 04:32:12;;;;;;;5.35;2.70;;;;;;;19.19;34.46;100346.22;5072961;28;20024;-87
2021/05/17 04:34:38;;;;;;;5.10;2.80;;;;;;;19.13;34.38;100340.25;5072648;28;20094;-86
2021/05/17 04:37:03;;;;;;;5.65;3.28;;;;;;;19.20;34.44;100347.84;5072373;28;20060;-86
2021/05/17 04:39:29;;;;;;;7.65;2.92;;;;;;;19.23;34.38;100349.84;5072780;28;20067;-86
2021/05/17 04:41:54;;;;;;;7.30;3.40;;;;;;;19.24;34.43;100356.97;5072695;28;20028;-86
2021/05/17 04:44:20;;;;;;;8.07;3.15;;;;;;;19.17;34.60;100353.34;5072474;28;20028;-85
2021/05/17 04:46:45;;;;;;;11.27;4.22;;;;;;;19.20;34.44;100356.16;5072528;28;20032;-85
2021/05/17 04:49:11;;;;;;;18.48;4.20;;;;;;;19.26;34.61;100365.69;5072487;28;20063;-86
2021/05/17 04:51:37;;;;;;;4.20;2.20;;;;;;;19.18;34.71;100366.78;5072346;28;20024;-85
2021/05/17 04:54:03;;;;;;;5.78;3.13;;;;;;;19.07;34.99;100365.91;5072287;28;20028;-86
2021/05/17 04:56:29;;;;;;;13.18;3.30;;;;;;;19.03;35.37;100368.63;5073507;28;20108;-85
2021/05/17 04:58:54;;;;;;;11.50;3.60;;;;;;;19.14;34.84;100374.28;5072200;28;20056;-86
2021/05/17 05:01:20;;;;;;;9.05;4.18;;;;;;;19.17;34.88;100375.50;5072513;28;20028;-85
2021/05/17 05:03:45;;;;;;;6.55;3.20;;;;;;;19.26;34.84;100378.75;5072118;28;20036;-86
2021/05/17 05:06:11;;;;;;;16.55;5.28;;;;;;;19.17;34.96;100381.81;5071962;28;20490;-87
2021/05/17 05:08:37;;;;;;;15.27;4.15;;;;;;;19.28;34.42;100388.28;5072422;28;20036;-87
2021/05/17 05:11:02;;;;;;;8.90;3.22;;;;;;;19.40;34.48;100393.53;5072439;28;20031;-87
2021/05/17 05:13:28;;;;;;;9.25;3.75;;;;;;;19.39;34.73;100389.19;5072461;28;20032;-89
2021/05/17 05:15:54;;;;;;;17.95;4.55;;;;;;;19.33;35.08;100392.66;5072538;28;20043;-87
2021/05/17 05:18:21;;;;;;;6.97;3.13;;;;;;;19.44;34.82;100398.34;5072802;28;20119;-89
2021/05/17 05:20:47;;;;;;;6.38;2.40;;;;;;;19.49;35.01;100401.53;5072502;28;20086;-86
2021/05/17 05:23:17;;;;;;;10.27;2.92;;;;;;;19.44;34.99;100399.13;5072228;28;20028;-88
2021/05/17 05:28:24;;;;;;;15.25;4.18;;;;;;;19.46;35.33;100413.38;5073669;28;20056;-86
2021/05/17 05:33:17;;;;;;;7.82;2.80;;;;;;;19.48;35.15;100410.22;5072953;28;20029;-86
2021/05/17 05:35:46;;;;;;;17.08;4.25;;;;;;;19.57;35.13;100419.88;5071246;28;20364;-90
2021/05/17 05:38:12;;;;;;;3.88;2.28;;;;;;;19.80;34.80;100418.84;5072091;28;20470;-85
2021/05/17 05:40:38;;;;;;;6.80;2.53;;;;;;;19.90;35.00;100418.97;5072004;28;20174;-86
2021/05/17 05:43:04;;;;;;;7.43;2.58;;;;;;;19.93;35.04;100422.94;5072226;28;20028;-86
2021/05/17 05:45:32;;;;;;;15.70;5.13;;;;;;;20.21;34.66;100419.59;5072195;28;20035;-86
2021/05/17 05:47:58;;;;;;;7.57;2.22;;;;;;;20.46;34.65;100420.56;5072554;28;20029;-86
2021/05/17 05:50:24;;;;;;;8.05;2.78;;;;;;;21.04;33.75;100427.97;5072223;28;20033;-85
2021/05/17 05:52:49;;;;;;;8.43;3.05;;;;;;;21.18;33.54;100423.66;5072841;28;20091;-89
2021/05/17 05:55:17;;;;;;;5.95;2.75;;;;;;;21.54;33.04;100424.56;5072412;28;20025;-87
2021/05/17 05:57:43;;;;;;;4.63;2.22;;;;;;;21.56;33.13;100428.53;5073153;28;20049;-88
2021/05/17 06:00:15;;;;;;;6.95;2.15;;;;;;;21.35;33.28;100436.03;5072895;28;20127;-89
2021/05/17 06:02:40;;;;;;;8.85;3.40;;;;;;;21.29;33.55;100439.19;5073023;28;20032;-88
2021/05/17 06:05:07;;;;;;;4.38;2.53;;;;;;;21.11;34.09;100452.22;5072783;28;20124;-89
2021/05/17 06:07:33;;;;;;;5.10;2.35;;;;;;;20.92;34.09;100455.28;5072686;28;20119;-87
2021/05/17 06:09:59;;;;;;;4.85;2.30;;;;;;;20.89;33.74;100464.41;5072496;28;20467;-89
2021/05/17 06:12:25;;;;;;;5.05;2.72;;;;;;;21.20;33.81;100462.94;5073345;28;20119;-88
2021/05/17 06:14:58;;;;;;;5.82;2.13;;;;;;;21.14;33.75;100458.94;5073354;28;20039;-88
2021/05/17 06:17:24;;;;;;;18.90;5.00;;;;;;;21.34;33.66;100457.47;5066269;28;20090;-84
2021/05/17 06:19:49;;;;;;;18.58;4.75;;;;;;;21.45;33.40;100451.94;5074730;28;20487;-82
2021/05/17 06:22:16;;;;;;;6.25;2.42;;;;;;;21.52;33.36;100457.50;5074235;28;20455;-82
2021/05/17 06:24:42;;;;;;;4.32;2.22;;;;;;;21.68;33.17;100462.69;5073554;28;20036;-82
2021/05/17 06:27:08;;;;;;;5.95;2.72;;;;;;;21.76;33.42;100464.28;5074975;28;20081;-88
2021/05/17 06:29:33;;;;;;;7.35;1.75;;;;;;;21.86;33.30;100472.66;5074803;28;20025;-85
2021/05/17 06:32:00;;;;;;;8.63;2.58;;;;;;;21.82;33.32;100468.28;5075556;28;20036;-82
2021/05/17 06:34:26;;;;;;;9.85;3.05;;;;;;;22.00;33.39;100474.66;5063215;28;20081;-81
2021/05/17 06:36:53;;;;;;;8.95;2.55;;;;;;;22.14;33.03;100477.47;5060066;28;20115;-83
2021/05/17 06:39:19;;;;;;;12.07;2.30;;;;;;;22.42;32.88;100468.28;5058181;28;20735;-82
2021/05/17 06:41:45;;;;;;;7.78;2.35;;;;;;;22.25;33.31;100474.69;5059847;28;20028;-82
2021/05/17 06:44:11;;;;;;;6.60;2.33;;;;;;;22.53;32.62;100487.78;5058884;28;20021;-83
2021/05/17 06:46:38;;;;;;;19.85;5.72;;;;;;;22.68;32.67;100480.97;5059104;28;21029;-81
2021/05/17 06:49:04;;;;;;;4.28;1.85;;;;;;;22.69;32.63;100482.56;5058360;28;20028;-75
2021/05/17 06:51:30;;;;;;;28.75;5.25;;;;;;;22.59;32.55;100486.16;5060011;28;20028;-85
2021/05/17 06:53:57;;;;;;;14.75;3.50;;;;;;;23.03;31.98;100490.44;5058426;28;20028;-78
2021/05/17 06:56:31;;;;;;;5.65;2.13;;;;;;;23.13;32.09;100483.25;5059783;28;20037;-85
2021/05/17 06:58:58;;;;;;;8.00;1.90;;;;;;;23.20;32.12;100488.78;5057141;28;20119;-85
2021/05/17 07:01:26;;;;;;;10.65;2.50;;;;;;;23.39;31.68;100490.28;5065468;28;20024;-85
2021/05/17 07:03:53;;;;;;;14.68;3.20;;;;;;;23.46;31.77;100493.03;5074620;28;20016;-87
2021/05/17 07:06:23;;;;;;;5.63;2.03;;;;;;;23.60;31.54;100498.56;5073354;28;20024;-84
2021/05/17 07:12:00;;;;;;;6.95;2.30;;;;;;;23.60;31.67;100503.31;5068213;28;20035;-87
2021/05/17 07:14:26;;;;;;;19.38;3.63;;;;;;;23.41;31.98;100499.03;5073741;28;20491;-87
2021/05/17 07:16:51;;;;;;;10.48;2.20;;;;;;;23.44;31.91;100501.03;5073947;28;20044;-83
2021/05/17 07:19:17;;;;;;;8.57;2.90;;;;;;;23.56;31.48;100508.13;5077185;28;20093;-88
2021/05/17 07:24:28;;;;;;;6.90;2.92;;;;;;;23.66;31.31;100519.25;5080918;28;20039;-78
2021/05/17 07:26:54;;;;;;;6.45;2.38;;;;;;;23.61;31.30;100516.88;5081121;28;20024;-89
2021/05/17 07:29:21;;;;;;;9.77;2.22;;;;;;;23.45;31.73;100516.56;5073171;28;20039;-85
2021/05/17 07:31:47;;;;;;;13.35;2.75;;;;;;;23.52;31.52;100524.88;5074293;28;20050;-83
2021/05/17 07:34:13;;;;;;;15.43;2.65;;;;;;;23.56;31.48;100522.84;5074708;28;20040;-87
2021/05/17 07:36:39;;;;;;;11.43;2.72;;;;;;;23.43;31.63;100528.13;5074004;28;20025;-88
2021/05/17 07:39:06;;;;;;;7.70;3.03;;;;;;;23.55;31.30;100524.06;5059493;28;20055;-83
2021/05/17 07:41:31;;;;;;;8.95;2.45;;;;;;;23.49;31.74;100528.47;5055064;28;20033;-84
2021/05/17 07:43:57;;;;;;;13.98;3.20;;;;;;;23.37;31.82;100540.88;5060369;28;20169;-84
2021/05/17 07:46:23;;;;;;;2.42;1.25;;;;;;;23.40;32.02;100539.25;5058313;28;20554;-84
2021/05/17 07:51:33;;;;;;;4.63;2.30;;;;;;;23.72;31.86;100537.13;5059061;28;20549;-86
2021/05/17 07:53:59;;;;;;;28.33;3.47;;;;;;;23.78;31.87;100541.09;5058486;28;20117;-84
2021/05/17 07:56:24;;;;;;;5.35;1.77;;;;;;;23.56;31.85;100542.38;5057140;28;20033;-86
2021/05/17 07:58:51;;;;;;;11.32;2.35;;;;;;;23.19;32.29;100540.94;5059116;28;20052;-89
2021/05/17 08:01:17;;;;;;;51.95;9.20;;;;;;;23.55;31.42;100546.38;5057968;28;20105;-84
2021/05/17 08:03:43;;;;;;;6.47;2.13;;;;;;;23.77;31.39;100552.66;5057020;28;20032;-83
2021/05/17 08:06:09;;;;;;;5.38;1.83;;;;;;;23.64;31.62;100543.16;5071798;28;20538;-90
2021/05/17 08:08:35;;;;;;;5.80;2.92;;;;;;;23.58;31.65;100556.72;5077729;28;20039;-84
2021/05/17 08:11:04;;;;;;;8.85;1.83;;;;;;;23.77;31.10;100553.44;5073666;28;20032;-88
2021/05/17 08:13:30;;;;;;;9.77;2.53;;;;;;;23.38;31.85;100563.97;5090635;28;20024;-88
2021/05/17 08:15:55;;;;;;;5.38;1.90;;;;;;;23.59;31.59;100558.31;5091213;28;20028;-85
2021/05/17 08:18:21;;;;;;;8.02;2.05;;;;;;;23.39;31.93;100559.97;5078630;28;20028;-83
2021/05/17 08:20:47;;;;;;;51.92;5.43;;;;;;;23.61;31.78;100555.94;5077800;28;20063;-83
2021/05/17 08:23:16;;;;;;;8.35;2.35;;;;;;;23.71;31.98;100557.06;5074514;28;20124;-87
2021/05/17 08:25:43;;;;;;;6.30;1.70;;;;;;;24.02;31.12;100555.28;5091026;28;20032;-85
2021/05/17 08:28:08;;;;;;;6.45;1.85;;;;;;;24.11;30.77;100563.19;5085501;28;20030;-85
2021/05/17 08:30:41;;;;;;;5.07;1.90;;;;;;;23.96;30.60;100566.09;5077772;28;20024;-86
2021/05/17 08:33:07;;;;;;;4.68;1.40;;;;;;;23.89;30.98;100560.56;5083293;28;20402;-90
2021/05/17 08:35:33;;;;;;;13.40;2.67;;;;;;;24.18;30.61;100558.38;5079910;28;20029;-84
2021/05/17 08:37:58;;;;;;;3.70;1.02;;;;;;;24.52;30.28;100560.50;5072731;28;20105;-89
2021/05/17 08:40:26;;;;;;;7.07;2.22;;;;;;;24.31;30.38;100564.25;5069384;28;20032;-82
2021/05/17 08:42:54;;;;;;;5.20;1.60;;;;;;;24.81;29.91;100559.03;5082755;28;20466;-87
2021/05/17 08:45:20;;;;;;;3.75;1.15;;;;;;;24.98;29.47;100562.06;5082567;28;20036;-82
2021/05/17 08:47:46;;;;;;;16.67;3.22;;;;;;;25.21;29.35;100559.44;5080332;28;20382;-81
2021/05/17 08:50:11;;;;;;;12.50;2.45;;;;;;;25.27;28.48;100560.56;5076931;28;20028;-87
2021/05/17 08:52:42;;;;;;;19.42;2.20;;;;;;;25.37;28.02;100556.84;5071562;28;20037;-86
2021/05/17 08:55:09;;;;;;;12.23;2.10;;;;;;;25.39;27.54;100553.59;5070800;28;20024;-81
2021/05/17 08:57:37;;;;;;;11.57;1.40;;;;;;;25.43;27.37;100554.38;5073326;28;20461;-90
2021/05/17 09:00:05;;;;;;;6.97;1.35;;;;;;;25.09;27.45;100554.38;5072306;28;20048;-86
2021/05/17 09:02:31;;;;;;;3.97;1.27;;;;;;;25.53;27.01;100564.63;5071569;28;20039;-88
2021/05/17 09:05:19;;;;;;;2.08;0.88;;;;;;;25.27;25.66;100559.78;5069806;28;20013;-83
2021/05/17 09:07:48;;;;;;;1.60;0.60;;;;;;;25.32;26.56;100562.91;5073421;28;20021;-87
2021/05/17 09:10:15;;;;;;;1.52;0.70;;;;;;;25.07;26.52;100556.78;5070865;28;20546;-87
2021/05/17 09:13:02;;;;;;;4.25;1.05;;;;;;;25.58;25.16;100572.56;5074549;28;20020;-83
2021/05/17 09:15:28;;;;;;;2.90;0.90;;;;;;;25.48;25.45;100567.13;5070142;28;20086;-88
2021/05/17 09:17:58;;;;;;;2.97;1.25;;;;;;;25.81;25.16;100573.88;5080422;28;20024;-82
2021/05/17 09:20:34;;;;;;;3.55;0.70;;;;;;;25.67;25.75;100575.63;5085636;28;20020;-81
2021/05/17 09:23:10;;;;;;;11.43;3.08;;;;;;;25.82;25.45;100581.84;5076881;28;20040;-90
2021/05/17 09:25:37;;;;;;;11.38;1.40;;;;;;;26.08;25.04;100573.91;5071600;28;20021;-82
2021/05/17 09:28:08;;;;;;;4.53;1.20;;;;;;;26.12;24.67;100577.44;5071493;28;20463;-82
2021/05/17 09:30:48;;;;;;;12.00;2.50;;;;;;;26.14;24.11;100578.56;5073387;28;20107;-82
2021/05/17 09:33:15;;;;;;;1.40;0.73;;;;;;;26.33;24.27;100577.09;5063601;28;20086;-81
2021/05/17 09:35:43;;;;;;;6.22;1.13;;;;;;;26.61;23.95;100578.66;5078384;28;20062;-89
2021/05/17 09:38:18;;;;;;;4.28;1.23;;;;;;;26.76;23.75;100570.81;5072446;28;20086;-82
2021/05/17 09:40:45;;;;;;;6.40;1.40;;;;;;;26.79;23.91;100576.34;5068863;28;20218;-82
2021/05/17 09:43:12;;;;;;;7.63;1.25;;;;;;;26.85;23.69;100578.66;5071744;28;20021;-86
2021/05/17 09:45:41;;;;;;;10.55;1.90;;;;;;;26.75;23.89;100580.41;5072583;28;20024;-90
2021/05/17 09:48:15;;;;;;;4.88;1.63;;;;;;;26.79;23.89;100586.75;5072334;28;20475;-82
2021/05/17 09:51:14;;;;;;;8.45;1.77;;;;;;;26.58;23.87;100589.91;5072071;28;20048;-83
2021/05/17 09:53:46;;;;;;;14.02;2.17;;;;;;;26.54;24.21;100596.38;5085881;28;20039;-89
2021/05/17 09:56:15;;;;;;;8.10;1.77;;;;;;;26.55;24.15;100592.38;5074013;28;20446;-83
2021/05/17 09:58:53;;;;;;;9.95;2.17;;;;;;;26.58;24.57;100592.72;5074971;28;20071;-88
2021/05/17 10:01:19;;;;;;;4.25;1.30;;;;;;;26.64;24.45;100591.03;5074690;28;20033;-83
2021/05/17 10:03:46;;;;;;;3.53;1.10;;;;;;;26.72;24.59;100595.28;5074028;28;20127;-83
2021/05/17 10:06:17;;;;;;;9.15;1.60;;;;;;;26.46;25.01;100603.34;5080145;28;20036;-90
2021/05/17 10:08:44;;;;;;;8.77;1.70;;;;;;;26.12;24.88;100606.22;5080950;28;20032;-91
2021/05/17 10:11:09;;;;;;;8.38;1.45;;;;;;;26.28;24.42;100599.97;5080493;28;20078;-90
2021/05/17 10:13:35;;;;;;;3.58;1.05;;;;;;;26.21;24.31;100602.88;5080976;28;20021;-90
2021/05/17 10:16:10;;;;;;;3.70;1.08;;;;;;;26.27;24.00;100592.78;5076397;28;20020;-89
2021/05/17 10:18:37;;;;;;;4.40;1.08;;;;;;;26.77;23.88;100595.59;5089026;28;20024;-90
2021/05/17 10:21:04;;;;;;;16.77;2.50;;;;;;;27.04;23.57;100589.91;5074954;28;20040;-90
2021/05/17 10:23:30;;;;;;;1.65;0.80;;;;;;;27.33;23.31;100592.16;5078707;28;20475;-81
2021/05/17 10:26:18;;;;;;;3.90;1.00;;;;;;;27.35;22.47;100596.13;5086008;28;20020;-85
2021/05/17 10:29:02;;;;;;;3.75;0.88;;;;;;;27.40;22.29;100596.84;5064494;28;20028;-83
2021/05/17 10:31:32;;;;;;;4.65;0.98;;;;;;;27.64;22.58;100590.69;5067360;28;20031;-85
2021/05/17 10:34:08;;;;;;;2.17;1.17;;;;;;;27.72;22.45;100601.81;5074979;28;20031;-82
2021/05/17 10:36:46;;;;;;;4.28;1.08;;;;;;;27.40;22.81;100600.44;5074370;28;20052;-88
2021/05/17 10:39:13;;;;;;;2.50;0.93;;;;;;;26.87;23.38;100598.63;5074269;28;20119;-88
2021/05/17 10:44:42;;;;;;;4.10;0.80;;;;;;;27.16;23.37;100610.13;5075933;28;20483;-83
2021/05/17 10:47:08;;;;;;;1.97;0.70;;;;;;;26.91;23.40;100599.38;5073714;28;20111;-84
2021/05/17 10:49:33;;;;;;;4.10;1.20;;;;;;;26.68;23.42;100608.59;5074750;28;20746;-82
2021/05/17 10:52:06;;;;;;;4.85;1.13;;;;;;;26.57;24.11;100619.94;5072508;28;20107;-81
2021/05/17 10:54:39;;;;;;;7.80;1.65;;;;;;;26.65;23.71;100615.03;5078796;28;20021;-81
2021/05/17 10:57:37;;;;;;;6.25;1.40;;;;;;;26.42;23.46;100625.00;5074167;28;20037;-82
2021/05/17 11:00:22;;;;;;;2.88;1.15;;;;;;;27.17;22.84;100622.94;5070337;28;20089;-78
2021/05/17 11:02:50;;;;;;;5.72;1.23;;;;;;;26.91;22.18;100630.22;5072613;28;20074;-79
2021/05/17 11:05:21;;;;;;;5.78;1.23;;;;;;;27.41;22.54;100627.25;5071475;28;20017;-79
2021/05/17 11:08:01;;;;;;;3.80;0.85;;;;;;;27.03;22.71;100635.19;5073043;28;20099;-78
2021/05/17 11:10:34;;;;;;;3.53;0.73;;;;;;;27.19;23.01;100626.09;5071252;28;20490;-79
2021/05/17 11:13:03;;;;;;;5.45;1.38;;;;;;;27.35;22.73;100624.16;5054383;28;20032;-79
2021/05/17 11:15:56;;;;;;;1.73;0.80;;;;;;;27.55;22.24;100620.59;5054558;28;20108;-78
2021/05/17 11:18:28;;;;;;;5.93;1.00;;;;;;;27.78;22.31;100622.53;5051074;28;20044;-79
2021/05/17 11:20:56;;;;;;;6.13;1.10;;;;;;;27.97;21.97;100616.09;5054535;28;20103;-78
2021/05/17 11:23:25;;;;;;;2.95;0.90;;;;;;;28.18;22.24;100638.06;5054488;28;20032;-80
2021/05/17 11:25:55;;;;;;;3.58;0.95;;;;;;;28.20;22.00;100624.41;5068709;28;20067;-79
2021/05/17 11:28:47;;;;;;;2.40;0.70;;;;;;;28.30;21.35;100624.59;5074284;28;20036;-79
2021/05/17 11:34:12;;;;;;;2.63;0.52;;;;;;;28.36;21.08;100617.25;5073440;28;20028;-79
2021/05/17 11:36:47;;;;;;;4.68;1.17;;;;;;;28.39;20.52;100616.34;5072911;28;20025;-80
2021/05/17 11:39:22;;;;;;;16.33;3.22;;;;;;;28.68;20.72;100606.00;5072770;28;20135;-79
2021/05/17 11:41:54;;;;;;;4.57;1.02;;;;;;;28.92;20.47;100615.03;5067026;28;20021;-79
2021/05/17 11:47:09;;;;;;;3.85;0.85;;;;;;;28.99;19.89;100620.47;5059422;28;20060;-79
2021/05/17 11:49:38;;;;;;;2.42;0.77;;;;;;;29.06;19.96;100613.06;5058369;28;20032;-79
2021/05/17 11:52:12;;;;;;;2.55;0.90;;;;;;;29.03;19.83;100617.56;5057379;28;20031;-79
2021/05/17 11:54:45;;;;;;;5.53;1.80;;;;;;;28.98;19.49;100618.88;5057741;28;20055;-79
2021/05/17 11:57:12;;;;;;;1.55;0.63;;;;;;;28.92;20.12;100614.25;5058772;28;20035;-79